createdAt,value
2023-02-09T00:02:00.085Z,58.20
2023-02-09T00:05:04.763Z,44.60
2023-02-09T00:08:08.802Z,69.70
2023-02-09T00:11:46.739Z,66.10
2023-02-09T00:14:50.878Z,103.40
2023-02-09T00:17:55.155Z,111.80
2023-02-09T00:21:08.288Z,107.60
2023-02-09T00:24:13.847Z,81.50
2023-02-09T00:27:17.861Z,93.90
2023-02-09T00:30:21.772Z,102.70
2023-02-09T00:33:26.779Z,84.80
2023-02-09T00:39:34.781Z,81.10
2023-02-09T00:42:38.851Z,65.50
2023-02-09T00:45:42.800Z,55.30
2023-02-09T00:48:46.783Z,48.40
2023-02-09T00:51:50.794Z,57.90
2023-02-09T00:54:54.815Z,40.20
2023-02-09T00:57:58.706Z,45.00
2023-02-09T01:01:02.777Z,41.40
2023-02-09T01:04:07.080Z,42.70
2023-02-09T01:07:11.177Z,48.30
2023-02-09T01:10:15.703Z,66.00
2023-02-09T01:13:19.719Z,81.50
2023-02-09T01:16:24.514Z,82.90
2023-02-09T01:22:32.790Z,64.20
2023-02-09T01:25:36.809Z,63.50
2023-02-09T01:28:41.622Z,59.00
2023-02-09T01:31:46.761Z,71.90
2023-02-09T01:34:53.666Z,67.10
2023-02-09T01:37:57.584Z,66.30
2023-02-09T01:41:01.595Z,61.90
2023-02-09T01:44:26.812Z,65.20
2023-02-09T01:47:32.205Z,57.00
2023-02-09T01:50:41.052Z,60.00
2023-02-09T01:53:45.064Z,59.70
2023-02-09T01:56:53.418Z,49.30
2023-02-09T02:00:05.242Z,49.60
2023-02-09T02:03:22.940Z,45.00
2023-02-09T02:06:26.855Z,42.70
2023-02-09T02:09:31.061Z,44.40
2023-02-09T02:12:37.073Z,49.10
2023-02-09T02:15:53.697Z,52.40
2023-02-09T02:19:23.894Z,70.50
2023-02-09T02:22:44.962Z,65.90
2023-02-09T02:25:58.876Z,57.80
2023-02-09T02:29:23.036Z,68.60
2023-02-09T02:32:44.566Z,71.10
2023-02-09T02:35:57.487Z,56.30
2023-02-09T02:39:22.694Z,64.00
2023-02-09T02:42:55.282Z,53.30
2023-02-09T02:46:05.622Z,59.90
2023-02-09T02:49:21.777Z,49.30
2023-02-09T02:52:25.765Z,50.90
2023-02-09T02:55:33.061Z,59.00
2023-02-09T02:58:40.942Z,41.90
2023-02-09T03:02:13.437Z,45.70
2023-02-09T03:05:18.737Z,40.80
2023-02-09T03:08:22.700Z,46.80
2023-02-09T03:11:57.760Z,29.40
2023-02-09T03:15:24.007Z,36.30
2023-02-09T03:18:54.224Z,32.50
2023-02-09T03:22:25.097Z,35.60
2023-02-09T03:25:38.199Z,64.40
2023-02-09T03:28:43.523Z,54.40
2023-02-09T03:31:49.250Z,48.60
2023-02-09T03:34:55.151Z,47.30
2023-02-09T03:38:01.413Z,48.70
2023-02-09T03:41:07.770Z,46.70
2023-02-09T03:44:27.526Z,47.60
2023-02-09T03:47:31.453Z,49.90
2023-02-09T03:50:36.300Z,47.40
2023-02-09T03:53:40.217Z,50.90
2023-02-09T03:56:44.348Z,48.10
2023-02-09T03:59:48.289Z,44.70
2023-02-09T04:02:52.200Z,46.70
2023-02-09T04:05:56.303Z,43.50
2023-02-09T04:09:01.443Z,31.20
2023-02-09T04:12:06.073Z,42.10
2023-02-09T04:15:10.706Z,47.80
2023-02-09T04:18:14.827Z,42.60
2023-02-09T04:21:19.128Z,36.70
2023-02-09T04:24:23.218Z,34.10
2023-02-09T04:27:28.609Z,35.60
2023-02-09T04:30:32.695Z,40.50
2023-02-09T04:33:36.848Z,34.90
2023-02-09T04:36:40.974Z,33.40
2023-02-09T04:39:44.869Z,31.80
2023-02-09T04:42:48.898Z,31.90
2023-02-09T04:45:54.556Z,47.90
2023-02-09T04:48:58.543Z,59.30
2023-02-09T04:52:02.485Z,47.20
2023-02-09T04:55:06.600Z,44.60
2023-02-09T04:58:32.120Z,46.80
2023-02-09T05:01:36.160Z,48.60
2023-02-09T05:04:40.152Z,51.70
2023-02-09T05:07:44.083Z,48.00
2023-02-09T05:10:48.121Z,52.30
2023-02-09T05:13:52.585Z,49.00
2023-02-09T05:16:56.648Z,32.70
2023-02-09T05:20:00.717Z,50.70
2023-02-09T05:23:04.969Z,49.00
2023-02-09T05:26:09.370Z,41.30
2023-02-09T05:29:13.287Z,45.50
2023-02-09T05:32:17.399Z,38.60
2023-02-09T05:35:21.740Z,39.10
2023-02-09T05:38:25.759Z,42.50
2023-02-09T05:41:48.321Z,52.60
2023-02-09T05:44:52.422Z,49.40
2023-02-09T05:47:56.537Z,49.60
2023-02-09T05:51:00.466Z,53.60
2023-02-09T05:54:04.622Z,43.40
2023-02-09T05:57:09.382Z,33.30
2023-02-09T06:00:14.423Z,49.70
2023-02-09T06:03:18.524Z,59.70
2023-02-09T06:06:22.680Z,58.40
2023-02-09T06:09:27.242Z,53.20
2023-02-09T06:12:31.227Z,52.90
2023-02-09T06:15:35.206Z,67.10
2023-02-09T06:18:39.207Z,55.60
2023-02-09T06:21:44.853Z,55.20
2023-02-09T06:24:48.780Z,62.00
2023-02-09T06:27:52.740Z,73.60
2023-02-09T06:30:56.863Z,57.10
2023-02-09T06:34:00.992Z,62.90
2023-02-09T06:37:05.089Z,68.30
2023-02-09T06:40:10.114Z,62.70
2023-02-09T06:43:14.084Z,62.40
2023-02-09T06:46:18.309Z,68.30
2023-02-09T06:49:24.136Z,77.10
2023-02-09T06:52:28.448Z,65.50
2023-02-09T06:55:33.893Z,62.50
2023-02-09T06:58:40.164Z,61.10
2023-02-09T07:01:44.210Z,51.10
2023-02-09T07:04:48.296Z,63.70
2023-02-09T07:07:52.290Z,74.00
2023-02-09T07:10:56.228Z,54.80
2023-02-09T07:14:00.235Z,58.30
2023-02-09T07:17:04.210Z,56.40
2023-02-09T07:20:09.602Z,60.40
2023-02-09T07:23:13.625Z,56.30
2023-02-09T07:26:18.119Z,50.00
2023-02-09T07:29:22.493Z,54.40
2023-02-09T07:32:27.924Z,49.70
2023-02-09T07:35:31.937Z,51.60
2023-02-09T07:38:37.126Z,58.00
2023-02-09T07:41:41.517Z,57.30
2023-02-09T07:44:45.720Z,54.90
2023-02-09T07:47:49.745Z,51.50
2023-02-09T07:50:56.622Z,45.80
2023-02-09T07:54:00.689Z,48.90
2023-02-09T07:57:04.663Z,49.10
2023-02-09T08:00:09.752Z,45.10
2023-02-09T08:03:22.631Z,50.70
2023-02-09T08:06:41.908Z,49.50
2023-02-09T08:09:47.230Z,40.20
2023-02-09T08:13:00.369Z,48.40
2023-02-09T08:16:07.994Z,38.80
2023-02-09T08:19:19.868Z,37.20
2023-02-09T08:22:27.218Z,39.00
2023-02-09T08:25:31.785Z,41.70
2023-02-09T08:28:43.969Z,36.40
2023-02-09T08:31:49.146Z,39.40
2023-02-09T08:34:53.133Z,38.70
2023-02-09T08:38:00.837Z,32.40
2023-02-09T08:41:07.230Z,33.50
2023-02-09T08:44:11.193Z,41.80
2023-02-09T08:47:15.332Z,32.60
2023-02-09T08:50:19.688Z,30.40
2023-02-09T08:53:23.736Z,30.80
2023-02-09T08:56:27.691Z,27.40
2023-02-09T08:59:33.180Z,37.10
2023-02-09T09:02:37.292Z,41.40
2023-02-09T09:05:41.403Z,31.80
2023-02-09T09:08:45.419Z,39.90
2023-02-09T09:11:49.400Z,37.60
2023-02-09T09:14:53.362Z,38.70
2023-02-09T09:17:57.332Z,32.60
2023-02-09T09:21:01.358Z,33.40
2023-02-09T09:24:05.620Z,33.50
2023-02-09T09:27:11.068Z,31.10
2023-02-09T09:30:15.015Z,34.10
2023-02-09T09:33:19.029Z,35.00
2023-02-09T09:36:23.101Z,42.40
2023-02-09T09:39:27.221Z,30.20
2023-02-09T09:42:38.292Z,38.50
2023-02-09T09:45:43.059Z,50.00
2023-02-09T09:48:53.095Z,51.40
2023-02-09T09:52:05.915Z,45.00
2023-02-09T09:55:21.770Z,48.80
2023-02-09T09:58:27.889Z,56.70
2023-02-09T10:01:33.196Z,43.40
2023-02-09T10:04:37.250Z,41.70
2023-02-09T10:07:43.383Z,38.00
2023-02-09T10:10:57.041Z,41.20
2023-02-09T10:14:01.264Z,33.10
2023-02-09T10:17:06.358Z,36.50
2023-02-09T10:20:11.274Z,33.80
2023-02-09T10:26:35.238Z,31.00
2023-02-09T10:29:40.232Z,34.90
2023-02-09T10:32:45.410Z,30.10
2023-02-09T10:35:53.950Z,33.10
2023-02-09T10:39:13.040Z,27.60
2023-02-09T10:42:27.165Z,35.90
2023-02-09T10:45:37.432Z,30.20
2023-02-09T10:48:44.319Z,26.40
2023-02-09T10:51:51.112Z,30.70
2023-02-09T10:55:00.108Z,33.10
2023-02-09T10:58:10.133Z,32.10
2023-02-09T11:01:22.817Z,31.90
2023-02-09T11:04:36.462Z,31.70
2023-02-09T11:07:42.700Z,28.50
2023-02-09T11:11:05.269Z,27.40
2023-02-09T11:14:19.130Z,32.20
2023-02-09T11:17:29.793Z,32.70
2023-02-09T11:20:37.606Z,37.60
2023-02-09T11:23:47.139Z,34.10
2023-02-09T11:26:55.289Z,35.90
2023-02-09T11:30:22.730Z,28.90
2023-02-09T11:33:56.030Z,28.80
2023-02-09T11:37:21.626Z,38.20
2023-02-09T11:40:37.428Z,29.40
2023-02-09T11:43:43.764Z,31.80
2023-02-09T11:46:52.429Z,32.40
2023-02-09T11:50:00.729Z,32.80
2023-02-09T11:53:17.154Z,26.90
2023-02-09T11:59:36.759Z,25.30
2023-02-09T12:03:09.535Z,29.20
2023-02-09T12:06:17.192Z,26.40
2023-02-09T12:09:51.631Z,24.50
2023-02-09T12:13:06.852Z,25.70
2023-02-09T12:16:18.904Z,20.80
2023-02-09T12:19:32.908Z,23.10
2023-02-09T12:22:45.488Z,24.90
2023-02-09T12:25:51.625Z,19.30
2023-02-09T12:29:21.107Z,22.30
2023-02-09T12:32:30.828Z,16.50
2023-02-09T12:35:40.071Z,15.40
2023-02-09T12:38:52.952Z,17.70
2023-02-09T13:44:32.242Z,17.20
2023-02-09T13:47:43.537Z,15.60
2023-02-09T13:50:48.111Z,14.00
2023-02-09T13:57:03.777Z,13.50
2023-02-09T14:00:21.822Z,14.20
2023-02-09T14:03:29.625Z,13.40
2023-02-09T14:06:38.232Z,14.80
2023-02-09T14:09:50.445Z,16.00
2023-02-09T14:13:29.166Z,17.50
2023-02-09T14:16:41.657Z,15.40
2023-02-09T14:19:58.745Z,15.40
2023-02-09T14:23:02.854Z,15.60
2023-02-09T14:26:33.664Z,16.00
2023-02-09T14:29:38.408Z,19.20
2023-02-09T14:32:48.473Z,15.90
2023-02-09T14:35:59.194Z,15.10
2023-02-09T14:39:31.520Z,19.80
2023-02-09T14:42:40.534Z,17.70
2023-02-09T14:45:57.680Z,23.60
2023-02-09T14:49:01.711Z,20.60
2023-02-09T14:52:14.943Z,19.40
2023-02-09T14:55:23.662Z,26.40
2023-02-09T14:58:32.444Z,22.50
2023-02-09T15:01:36.469Z,25.50
2023-02-09T15:04:42.048Z,22.10
2023-02-09T15:07:51.833Z,22.30
2023-02-09T15:11:00.001Z,20.90
2023-02-09T15:14:04.441Z,23.70
2023-02-09T15:17:20.619Z,18.90
2023-02-09T15:20:25.407Z,20.90
2023-02-09T15:26:36.769Z,19.10
2023-02-09T15:29:40.711Z,23.60
2023-02-09T15:32:45.325Z,21.70
2023-02-09T15:35:50.176Z,27.50
2023-02-09T15:38:54.205Z,27.60
2023-02-09T15:42:16.725Z,34.30
2023-02-09T15:45:43.077Z,26.00
2023-02-09T15:48:47.080Z,33.70
2023-02-09T15:51:51.261Z,25.10
2023-02-09T15:54:55.951Z,31.90
2023-02-09T15:57:59.948Z,25.10
2023-02-09T16:01:04.986Z,27.70
2023-02-09T16:04:14.305Z,27.10
2023-02-09T16:07:25.124Z,26.40
2023-02-09T16:10:30.183Z,25.80
2023-02-09T16:13:34.159Z,25.10
2023-02-09T16:16:38.112Z,30.70
2023-02-09T16:19:42.166Z,28.50
2023-02-09T16:22:49.278Z,27.60
2023-02-09T16:25:54.052Z,32.10
2023-02-09T16:28:58.235Z,29.90
2023-02-09T16:32:02.263Z,30.30
2023-02-09T16:35:16.281Z,29.00
2023-02-09T16:38:22.759Z,28.60
2023-02-09T16:41:45.434Z,31.40
2023-02-09T16:44:49.340Z,25.30
2023-02-09T16:47:55.072Z,28.30
2023-02-09T16:50:59.403Z,30.60
2023-02-09T16:54:05.036Z,33.60
2023-02-09T16:57:15.143Z,32.10
2023-02-09T17:00:19.312Z,35.90
2023-02-09T17:03:36.235Z,33.10
2023-02-09T17:06:41.171Z,30.40
2023-02-09T17:09:45.120Z,32.80
2023-02-09T17:12:49.597Z,36.20
2023-02-09T17:15:59.771Z,28.90
2023-02-09T17:19:07.928Z,29.50
2023-02-09T17:22:13.251Z,31.70
2023-02-09T17:25:19.212Z,29.20
2023-02-09T17:28:25.445Z,29.90
2023-02-09T17:31:43.740Z,29.50
2023-02-09T17:34:54.967Z,28.10
2023-02-09T17:37:59.361Z,28.80
2023-02-09T17:41:13.924Z,28.70
2023-02-09T17:44:43.341Z,25.60
2023-02-09T17:47:51.521Z,30.10
2023-02-09T17:50:58.072Z,36.50
2023-02-09T17:54:03.703Z,35.60
2023-02-09T17:57:12.176Z,30.40
2023-02-09T18:00:17.211Z,29.70
2023-02-09T18:03:23.863Z,23.50
2023-02-09T18:06:34.393Z,54.30
2023-02-09T18:09:38.309Z,29.00
2023-02-09T18:12:43.329Z,32.50
2023-02-09T18:15:52.346Z,49.50
2023-02-09T18:18:56.376Z,37.30
2023-02-09T18:22:01.981Z,32.60
2023-02-09T18:25:07.033Z,41.40
2023-02-09T18:28:14.553Z,28.50
2023-02-09T18:31:19.895Z,21.80
2023-02-09T18:34:23.925Z,37.60
2023-02-09T18:37:27.941Z,30.90
2023-02-09T18:40:32.545Z,30.40
2023-02-09T18:43:37.485Z,28.00
2023-02-09T18:46:43.319Z,34.60
2023-02-09T18:49:47.795Z,26.70
2023-02-09T18:52:55.072Z,28.50
2023-02-09T18:55:59.408Z,31.30
2023-02-09T18:59:03.421Z,27.00
2023-02-09T19:02:11.125Z,32.80
2023-02-09T19:05:17.781Z,27.80
2023-02-09T19:08:21.814Z,30.60
2023-02-09T19:11:26.209Z,26.30
2023-02-09T19:14:39.302Z,27.80
2023-02-09T19:17:43.693Z,26.90
2023-02-09T19:20:47.660Z,28.30
2023-02-09T19:23:51.641Z,27.70
2023-02-09T19:26:56.141Z,27.90
2023-02-09T19:30:00.164Z,26.50
2023-02-09T19:33:04.404Z,25.50
2023-02-09T19:36:09.195Z,30.90
2023-02-09T19:39:13.225Z,26.60
2023-02-09T19:42:17.456Z,24.50
2023-02-09T19:45:21.364Z,27.00
2023-02-09T19:48:25.397Z,26.10
2023-02-09T19:51:29.400Z,24.10
2023-02-09T19:54:35.249Z,28.50
2023-02-09T19:57:39.485Z,32.50
2023-02-09T20:00:43.775Z,28.00
2023-02-09T20:03:49.654Z,27.80
2023-02-09T20:06:53.790Z,30.00
2023-02-09T20:09:58.216Z,30.80
2023-02-09T20:13:02.199Z,30.70
2023-02-09T20:16:11.676Z,32.60
2023-02-09T20:19:15.688Z,28.10
2023-02-09T20:22:19.669Z,32.40
2023-02-09T20:25:23.603Z,36.80
2023-02-09T20:28:27.642Z,33.50
2023-02-09T20:31:36.854Z,36.60
2023-02-09T20:34:41.092Z,29.30
2023-02-09T20:37:45.108Z,33.00
2023-02-09T20:40:49.467Z,36.90
2023-02-09T20:44:12.084Z,37.20
2023-02-09T20:47:16.367Z,31.30
2023-02-09T20:50:20.514Z,30.10
2023-02-09T20:53:24.655Z,36.20
2023-02-09T20:56:29.390Z,34.20
2023-02-09T21:02:39.183Z,25.90
2023-02-09T21:05:43.288Z,37.30
2023-02-09T21:08:48.256Z,32.70
2023-02-09T21:11:53.745Z,37.50
2023-02-09T21:14:58.901Z,37.20
2023-02-09T21:18:03.110Z,37.10
2023-02-09T21:21:09.041Z,36.40
2023-02-09T21:24:12.979Z,32.50
2023-02-09T21:27:16.948Z,37.90
2023-02-09T21:30:21.151Z,40.20
2023-02-09T21:33:25.735Z,33.80
2023-02-09T21:36:30.163Z,40.20
2023-02-09T21:39:34.131Z,34.90
2023-02-09T21:42:39.082Z,34.70
2023-02-09T21:48:46.788Z,27.90
2023-02-09T21:51:50.780Z,34.90
2023-02-09T21:54:54.764Z,26.50
2023-02-09T21:58:00.946Z,26.40
2023-02-09T22:01:05.046Z,32.20
2023-02-09T22:04:09.426Z,28.80
2023-02-09T22:07:14.603Z,31.30
2023-02-09T22:10:18.748Z,33.40
2023-02-09T22:13:22.763Z,29.00
2023-02-09T22:16:26.760Z,30.80
2023-02-09T22:19:30.787Z,33.50
2023-02-09T22:22:34.910Z,30.40
2023-02-09T22:25:38.927Z,39.40
2023-02-09T22:28:43.341Z,29.30
2023-02-09T22:31:47.851Z,30.00
2023-02-09T22:34:51.741Z,31.30
2023-02-09T22:37:55.816Z,29.30
2023-02-09T22:41:08.076Z,31.50
2023-02-09T22:44:14.354Z,26.80
2023-02-09T22:47:18.301Z,28.90
2023-02-09T22:50:22.314Z,30.40
2023-02-09T22:53:27.567Z,33.60
2023-02-09T22:56:32.093Z,32.50
2023-02-09T22:59:36.422Z,30.50
2023-02-09T23:02:40.532Z,25.50
2023-02-09T23:05:44.727Z,24.30
2023-02-09T23:08:53.280Z,30.90
2023-02-09T23:11:57.182Z,23.90
2023-02-09T23:15:01.106Z,27.70
2023-02-09T23:18:05.233Z,33.10
2023-02-09T23:21:09.367Z,24.60
2023-02-09T23:24:16.330Z,29.60
2023-02-09T23:27:20.412Z,23.90
2023-02-09T23:30:24.364Z,25.60
2023-02-09T23:33:28.380Z,29.30
2023-02-09T23:36:34.330Z,31.50
2023-02-09T23:39:38.455Z,24.20
2023-02-09T23:42:42.363Z,28.40
2023-02-09T23:45:46.385Z,26.50
2023-02-09T23:48:53.305Z,29.80
2023-02-09T23:51:57.524Z,28.70
2023-02-09T23:55:02.741Z,32.40
2023-02-09T23:58:06.691Z,27.90
